createdAt,value
2018-07-12T00:00:37.920Z,101920.27
2018-07-12T00:03:06.426Z,101919.98
2018-07-12T00:05:36.550Z,101918.55
2018-07-12T00:08:05.047Z,101917.66
2018-07-12T00:10:33.507Z,101920.34
2018-07-12T00:13:03.940Z,101918.73
2018-07-12T00:15:32.418Z,101918.77
2018-07-12T00:18:00.883Z,101914.61
2018-07-12T00:20:31.128Z,101918.36
2018-07-12T00:23:01.094Z,101918.59
2018-07-12T00:25:31.064Z,101925.07
2018-07-12T00:27:59.936Z,101921.56
2018-07-12T00:30:29.739Z,101914.72
2018-07-12T00:33:00.111Z,101914.95
2018-07-12T00:35:30.263Z,101915.27
2018-07-12T00:37:58.695Z,101915.27
2018-07-12T00:40:28.683Z,101918.84
2018-07-12T00:42:58.489Z,101919.61
2018-07-12T00:45:27.000Z,101914.34
2018-07-12T00:47:56.823Z,101918.01
2018-07-12T00:50:26.838Z,101917.84
2018-07-12T00:52:55.292Z,101911.34
2018-07-12T00:55:23.906Z,101918.64
2018-07-12T00:57:51.699Z,101912.03
2018-07-12T01:00:21.666Z,101919.09
2018-07-12T01:02:51.514Z,101920.78
2018-07-12T01:05:21.410Z,101909.10
2018-07-12T01:07:49.798Z,101908.19
2018-07-12T01:10:19.752Z,101902.69
2018-07-12T01:12:48.149Z,101910.33
2018-07-12T01:15:18.090Z,101915.23
2018-07-12T01:17:47.984Z,101913.64
2018-07-12T01:20:17.363Z,101915.07
2018-07-12T01:22:45.978Z,101911.91
2018-07-12T01:25:15.892Z,101908.02
2018-07-12T01:27:44.810Z,101909.89
2018-07-12T01:30:13.268Z,101906.52
2018-07-12T01:32:41.653Z,101911.22
2018-07-12T01:35:11.584Z,101909.48
2018-07-12T01:37:41.486Z,101915.81
2018-07-12T01:40:09.735Z,101906.27
2018-07-12T01:42:38.232Z,101911.45
2018-07-12T01:45:09.076Z,101910.81
2018-07-12T01:47:39.206Z,101910.81
2018-07-12T01:50:09.463Z,101910.73
2018-07-12T01:52:39.343Z,101908.72
2018-07-12T01:55:09.438Z,101910.56
2018-07-12T01:57:37.913Z,101918.84
2018-07-12T02:00:06.230Z,101921.79
2018-07-12T02:02:34.670Z,101925.37
2018-07-12T02:05:04.928Z,101926.00
2018-07-12T02:07:35.049Z,101918.84
2018-07-12T02:10:04.854Z,101924.33
2018-07-12T02:12:33.401Z,101919.67
2018-07-12T02:15:01.791Z,101924.06
2018-07-12T02:17:29.990Z,101928.54
2018-07-12T02:20:00.186Z,101929.05
2018-07-12T02:22:30.164Z,101924.08
2018-07-12T02:24:58.403Z,101922.45
2018-07-12T02:27:28.707Z,101918.80
2018-07-12T02:29:57.188Z,101926.80
2018-07-12T02:32:25.513Z,101926.41
2018-07-12T02:34:55.449Z,101929.13
2018-07-12T02:37:25.301Z,101920.49
2018-07-12T02:39:55.234Z,101923.03
2018-07-12T02:42:25.492Z,101930.12
2018-07-12T02:44:55.566Z,101929.61
2018-07-12T02:47:24.136Z,101928.42
2018-07-12T02:49:53.122Z,101933.75
2018-07-12T02:52:21.719Z,101930.51
2018-07-12T02:54:51.635Z,101924.14
2018-07-12T02:57:21.686Z,101919.99
2018-07-12T02:59:50.145Z,101920.52
2018-07-12T03:02:19.444Z,101918.88
2018-07-12T03:04:50.333Z,101921.89
2018-07-12T03:07:18.769Z,101929.23
2018-07-12T03:09:48.749Z,101926.22
2018-07-12T03:12:18.566Z,101929.23
2018-07-12T03:14:46.648Z,101928.97
2018-07-12T03:17:16.468Z,101929.17
2018-07-12T03:19:46.854Z,101931.05
2018-07-12T03:22:16.761Z,101929.45
2018-07-12T03:24:45.204Z,101936.27
2018-07-12T03:27:15.067Z,101934.87
2018-07-12T03:29:43.405Z,101935.90
2018-07-12T03:32:13.299Z,101933.88
2018-07-12T03:34:43.227Z,101924.95
2018-07-12T03:37:11.614Z,101925.92
2018-07-12T03:39:40.080Z,101922.98
2018-07-12T03:42:09.483Z,101923.56
2018-07-12T03:44:39.486Z,101922.92
2018-07-12T03:47:08.073Z,101927.82
2018-07-12T03:49:36.421Z,101925.02
2018-07-12T03:52:05.461Z,101926.93
2018-07-12T03:54:35.546Z,101924.09
2018-07-12T03:57:04.014Z,101924.67
2018-07-12T03:59:32.400Z,101932.33
2018-07-12T04:02:00.819Z,101927.61
2018-07-12T04:04:30.958Z,101922.73
2018-07-12T04:07:01.010Z,101932.87
2018-07-12T04:09:31.128Z,101929.20
2018-07-12T04:11:59.738Z,101934.83
2018-07-12T04:14:29.719Z,101933.26
2018-07-12T04:16:59.783Z,101937.55
2018-07-12T04:19:29.900Z,101942.47
2018-07-12T04:21:59.977Z,101940.28
2018-07-12T04:24:28.383Z,101944.13
2018-07-12T04:26:58.665Z,101940.92
2018-07-12T04:29:28.707Z,101940.30
2018-07-12T04:31:58.723Z,101941.98
2018-07-12T04:34:28.630Z,101941.22
2018-07-12T04:36:58.556Z,101942.52
2018-07-12T04:39:28.930Z,101948.30
2018-07-12T04:41:58.864Z,101946.91
2018-07-12T04:44:29.062Z,101950.92
2018-07-12T04:46:59.063Z,101946.91
2018-07-12T04:49:28.219Z,101947.56
2018-07-12T04:51:59.168Z,101938.30
2018-07-12T04:54:28.031Z,101944.02
2018-07-12T04:56:58.276Z,101942.56
2018-07-12T04:59:26.712Z,101942.96
2018-07-12T05:01:56.703Z,101940.03
2018-07-12T05:04:27.084Z,101939.88
2018-07-12T05:06:55.398Z,101943.43
2018-07-12T05:09:25.293Z,101935.77
2018-07-12T05:11:55.223Z,101933.77
2018-07-12T05:14:25.043Z,101932.53
2018-07-12T05:16:53.323Z,101931.11
2018-07-12T05:19:23.221Z,101935.69
2018-07-12T05:21:51.821Z,101933.39
2018-07-12T05:24:21.612Z,101939.59
2018-07-12T05:26:50.195Z,101942.94
2018-07-12T05:29:19.231Z,101938.70
2018-07-12T05:31:47.605Z,101943.04
2018-07-12T05:34:17.375Z,101941.66
2018-07-12T05:37:00.632Z,101946.74
2018-07-12T05:39:33.780Z,101941.84
2018-07-12T05:42:03.762Z,101942.88
2018-07-12T05:44:36.789Z,101944.69
2018-07-12T05:47:10.162Z,101939.96
2018-07-12T05:49:43.288Z,101940.81
2018-07-12T05:52:15.055Z,101951.08
2018-07-12T05:54:46.811Z,101947.88
2018-07-12T05:57:21.478Z,101957.09
2018-07-12T05:59:54.656Z,101967.20
2018-07-12T06:02:27.686Z,101963.97
2018-07-12T06:05:01.295Z,101970.55
2018-07-12T06:07:33.238Z,101975.63
2018-07-12T06:10:07.634Z,101977.52
2018-07-12T06:12:39.133Z,101981.13
2018-07-12T06:15:10.625Z,101976.88
2018-07-12T06:17:45.275Z,101972.81
2018-07-12T06:20:18.324Z,101977.97
2018-07-12T06:22:49.850Z,101974.65
2018-07-12T06:25:21.326Z,101984.31
2018-07-12T06:27:53.259Z,101989.83
2018-07-12T06:30:26.497Z,101989.98
2018-07-12T06:33:00.525Z,101992.10
2018-07-12T06:35:33.641Z,101988.56
2018-07-12T06:38:06.523Z,101996.46
2018-07-12T06:40:39.536Z,101995.73
2018-07-12T06:43:12.547Z,101993.10
2018-07-12T06:45:43.532Z,102000.39
2018-07-12T06:48:14.911Z,102002.97
2018-07-12T06:50:46.328Z,102001.69
2018-07-12T06:53:19.360Z,102003.50
2018-07-12T06:55:54.264Z,102002.98
2018-07-12T06:58:27.819Z,102007.75
2018-07-12T07:01:00.772Z,102014.73
2018-07-12T07:03:31.754Z,102017.59
2018-07-12T07:06:06.256Z,102019.26
2018-07-12T07:08:36.232Z,102018.70
2018-07-12T07:11:10.892Z,102022.21
2018-07-12T07:13:41.558Z,102024.48
2018-07-12T07:16:15.954Z,102017.51
2018-07-12T07:18:47.340Z,102026.48
2018-07-12T07:21:18.810Z,102031.75
2018-07-12T07:23:51.699Z,102032.67
2018-07-12T07:26:23.580Z,102029.27
2018-07-12T07:28:56.420Z,102032.53
2018-07-12T07:31:27.877Z,102031.98
2018-07-12T07:33:59.236Z,102032.38
2018-07-12T07:36:32.627Z,102035.18
2018-07-12T07:39:02.369Z,102035.96
2018-07-12T07:41:35.401Z,102033.72
2018-07-12T07:44:10.296Z,102036.20
2018-07-12T07:46:43.353Z,102041.16
2018-07-12T07:49:16.512Z,102042.56
2018-07-12T07:51:49.352Z,102038.47
2018-07-12T07:54:22.895Z,102044.60
2018-07-12T07:56:54.510Z,102040.99
2018-07-12T07:59:27.434Z,102040.27
2018-07-12T08:02:00.277Z,102038.38
2018-07-12T08:04:31.687Z,102034.13
2018-07-12T08:07:03.204Z,102040.92
2018-07-12T08:09:36.306Z,102041.17
2018-07-12T08:12:06.150Z,102040.83
2018-07-12T08:14:36.608Z,102048.80
2018-07-12T08:17:09.531Z,102048.68
2018-07-12T08:19:42.718Z,102050.34
2018-07-12T08:22:14.312Z,102058.88
2018-07-12T08:24:47.318Z,102048.62
2018-07-12T08:27:21.598Z,102048.75
2018-07-12T08:29:53.456Z,102049.91
2018-07-12T08:32:26.327Z,102054.70
2018-07-12T08:35:00.067Z,102058.09
2018-07-12T08:37:33.101Z,102055.68
2018-07-12T08:40:06.530Z,102057.35
2018-07-12T08:42:38.473Z,102061.03
2018-07-12T08:45:11.856Z,102056.98
2018-07-12T08:47:43.336Z,102062.47
2018-07-12T08:50:16.825Z,102059.00
2018-07-12T08:52:48.260Z,102056.47
2018-07-12T08:55:22.265Z,102056.17
2018-07-12T08:57:53.802Z,102052.70
2018-07-12T09:00:26.856Z,102053.13
2018-07-12T09:03:00.168Z,102059.94
2018-07-12T09:05:30.064Z,102057.73
2018-07-12T09:08:01.516Z,102051.56
2018-07-12T09:10:34.736Z,102052.54
2018-07-12T09:13:09.129Z,102058.97
2018-07-12T09:15:42.116Z,102053.61
2018-07-12T09:18:13.666Z,102061.13
2018-07-12T09:20:46.676Z,102055.47
2018-07-12T09:23:18.786Z,102051.93
2018-07-12T09:25:50.480Z,102055.09
2018-07-12T09:28:21.850Z,102050.20
2018-07-12T09:30:54.820Z,102045.98
2018-07-12T09:33:27.825Z,102056.59
2018-07-12T09:36:01.422Z,102056.07
2018-07-12T09:38:52.954Z,102054.48
2018-07-12T09:41:25.682Z,102053.44
2018-07-12T09:43:55.819Z,102053.42
2018-07-12T09:46:28.875Z,102063.39
2018-07-12T09:49:02.196Z,102050.23
2018-07-12T09:51:35.136Z,102048.28
2018-07-12T09:54:08.233Z,102052.77
2018-07-12T09:57:30.140Z,102048.22
2018-07-12T10:00:04.779Z,102048.71
2018-07-12T10:02:53.739Z,102043.73
2018-07-12T10:05:44.333Z,102049.26
2018-07-12T10:08:33.481Z,102050.90
2018-07-12T10:11:08.662Z,102049.49
2018-07-12T10:13:57.384Z,102047.31
2018-07-12T10:16:46.606Z,102047.10
2018-07-12T10:19:19.645Z,102264.33
2018-07-12T10:21:51.200Z,102045.16
2018-07-12T10:24:22.615Z,102044.41
2018-07-12T10:26:56.947Z,102060.11
2018-07-12T10:29:28.692Z,102048.11
2018-07-12T10:32:00.234Z,102050.98
2018-07-12T10:34:30.194Z,102038.44
2018-07-12T10:37:01.580Z,102048.09
2018-07-12T10:39:33.047Z,102041.05
2018-07-12T10:42:04.532Z,102052.23
2018-07-12T10:44:36.066Z,102048.46
2018-07-12T10:47:07.443Z,102038.29
2018-07-12T10:49:38.675Z,102039.06
2018-07-12T10:52:11.464Z,102043.37
2018-07-12T10:54:44.332Z,102042.80
2018-07-12T10:57:14.965Z,102046.44
2018-07-12T10:59:47.951Z,102039.06
2018-07-12T11:02:19.350Z,102051.75
2018-07-12T11:04:52.401Z,102043.31
2018-07-12T11:07:25.491Z,102239.42
2018-07-12T11:09:57.144Z,102139.19
2018-07-12T11:12:30.190Z,102116.41
2018-07-12T11:15:03.099Z,102114.44
2018-07-12T11:17:36.382Z,102137.70
2018-07-12T11:20:09.312Z,102145.07
2018-07-12T11:22:40.691Z,102143.11
2018-07-12T11:25:13.695Z,102153.87
2018-07-12T11:27:46.656Z,102159.16
2018-07-12T11:30:19.625Z,102169.92
2018-07-12T11:32:52.673Z,102210.00
2018-07-12T11:35:25.695Z,102198.66
2018-07-12T11:37:57.739Z,102198.80
2018-07-12T11:40:28.376Z,102284.52
2018-07-12T11:43:00.430Z,102266.70
2018-07-12T11:45:33.277Z,102316.30
2018-07-12T11:48:04.763Z,102320.80
2018-07-12T11:50:37.650Z,102330.85
2018-07-12T11:53:09.087Z,102326.94
2018-07-12T11:55:40.542Z,102327.14
2018-07-12T11:58:12.003Z,102316.35
2018-07-12T12:00:44.965Z,102303.14
2018-07-12T12:03:19.088Z,102319.84
2018-07-12T12:05:51.938Z,102318.56
2018-07-12T12:08:21.989Z,102316.45
2018-07-12T12:10:55.011Z,102317.42
2018-07-12T12:13:28.288Z,102317.70
2018-07-12T12:15:59.648Z,102328.69
2018-07-12T12:18:30.532Z,102382.02
2018-07-12T12:21:01.873Z,102464.33
2018-07-12T12:23:33.336Z,102376.22
2018-07-12T12:26:06.617Z,102343.27
2018-07-12T12:28:38.163Z,102336.81
2018-07-12T12:31:10.337Z,102332.59
2018-07-12T12:33:44.679Z,102336.58
2018-07-12T12:36:17.588Z,102397.34
2018-07-12T12:38:52.720Z,102527.36
2018-07-12T12:41:25.553Z,102350.62
2018-07-12T12:43:57.548Z,102300.01
2018-07-12T12:46:29.167Z,102402.40
2018-07-12T12:49:01.203Z,102325.34
2018-07-12T12:51:35.896Z,102300.02
2018-07-12T12:54:07.256Z,102305.64
2018-07-12T12:56:40.368Z,102307.20
2018-07-12T12:59:13.429Z,102303.74
2018-07-12T13:01:43.336Z,102309.67
2018-07-12T13:04:14.817Z,102312.34
2018-07-12T13:06:49.150Z,102675.48
2018-07-12T13:09:22.886Z,102343.73
2018-07-12T13:11:56.071Z,102305.78
2018-07-12T13:14:28.966Z,102254.79
2018-07-12T13:17:00.890Z,102340.32
2018-07-12T13:19:32.258Z,102381.98
2018-07-12T13:22:04.139Z,102375.06
2018-07-12T13:24:38.505Z,102365.31
2018-07-12T13:27:11.461Z,102347.17
2018-07-12T13:29:47.427Z,102350.43
2018-07-12T13:32:20.714Z,102340.70
2018-07-12T13:34:53.594Z,102339.71
2018-07-12T13:37:26.641Z,102349.33
2018-07-12T13:39:59.632Z,102340.52
2018-07-12T13:42:32.665Z,102341.17
2018-07-12T13:45:06.356Z,102344.95
2018-07-12T13:47:39.149Z,102336.86
2018-07-12T13:50:10.624Z,102333.98
2018-07-12T13:52:43.460Z,102338.77
2018-07-12T13:55:15.009Z,102336.85
2018-07-12T13:57:48.015Z,102329.91
2018-07-12T14:00:19.448Z,102330.14
2018-07-12T14:02:52.416Z,102332.42
2018-07-12T14:05:25.206Z,102321.59
2018-07-12T14:07:59.107Z,102314.58
2018-07-12T14:10:29.138Z,102316.73
2018-07-12T14:13:00.043Z,102323.22
2018-07-12T14:15:33.355Z,102320.50
2018-07-12T14:18:06.189Z,102324.70
2018-07-12T14:20:37.678Z,102307.66
2018-07-12T14:23:10.054Z,102296.49
2018-07-12T14:25:42.908Z,102314.92
2018-07-12T14:28:16.244Z,102311.55
2018-07-12T14:30:49.092Z,102322.30
2018-07-12T14:33:20.575Z,102314.87
2018-07-12T14:35:53.649Z,102297.06
2018-07-12T14:38:25.212Z,102295.95
2018-07-12T14:40:56.215Z,102306.84
2018-07-12T14:43:27.826Z,102297.59
2018-07-12T14:45:57.787Z,102292.19
2018-07-12T14:48:30.789Z,102283.20
2018-07-12T14:51:02.815Z,102287.02
2018-07-12T14:53:34.236Z,102294.28
2018-07-12T14:56:04.964Z,102276.38
2018-07-12T14:58:37.101Z,102295.05
2018-07-12T15:01:09.070Z,102292.11
2018-07-12T15:03:42.278Z,102285.27
2018-07-12T15:06:15.186Z,102280.50
2018-07-12T15:08:48.061Z,102290.25
2018-07-12T15:11:20.866Z,102288.05
2018-07-12T15:13:52.251Z,102284.50
2018-07-12T15:16:25.103Z,102285.84
2018-07-12T15:18:56.521Z,102281.48
2018-07-12T15:21:29.316Z,102286.08
2018-07-12T15:24:00.911Z,102283.53
2018-07-12T15:26:32.320Z,102283.21
2018-07-12T15:29:05.146Z,102282.42
2018-07-12T15:31:36.603Z,102291.36
2018-07-12T15:34:08.047Z,102275.53
2018-07-12T15:36:40.835Z,102287.61
2018-07-12T15:39:13.700Z,102262.93
2018-07-12T15:41:44.252Z,102289.29
2018-07-12T15:44:17.174Z,102285.31
2018-07-12T15:46:47.640Z,102280.23
2018-07-12T15:49:19.498Z,102296.83
2018-07-12T15:51:51.446Z,102279.88
2018-07-12T15:54:22.104Z,102276.83
2018-07-12T15:56:52.011Z,102272.07
2018-07-12T15:59:24.017Z,102277.72
2018-07-12T16:01:54.728Z,102285.55
2018-07-12T16:04:27.198Z,102276.51
2018-07-12T16:07:00.048Z,102275.29
2018-07-12T16:09:35.469Z,102274.39
2018-07-12T16:12:07.535Z,101972.21
2018-07-12T16:14:40.876Z,101968.86
2018-07-12T16:17:13.698Z,101961.52
2018-07-12T16:19:46.661Z,101958.59
2018-07-12T16:22:19.914Z,101967.37
2018-07-12T16:24:52.812Z,101966.59
2018-07-12T16:27:25.678Z,101971.34
2018-07-12T16:29:58.709Z,101964.39
2018-07-12T16:32:28.621Z,101965.20
2018-07-12T16:35:02.974Z,101960.78
2018-07-12T16:37:33.864Z,101963.09
2018-07-12T16:40:05.431Z,101967.30
2018-07-12T16:42:38.344Z,101965.42
2018-07-12T16:45:10.323Z,101964.11
2018-07-12T16:47:43.236Z,101962.24
2018-07-12T16:50:16.763Z,101958.00
2018-07-12T16:52:49.677Z,101961.39
2018-07-12T16:55:21.200Z,101963.23
2018-07-12T16:57:53.058Z,101965.64
2018-07-12T17:00:22.753Z,101965.05
2018-07-12T17:02:54.206Z,101964.71
2018-07-12T17:05:27.391Z,101965.20
2018-07-12T17:07:58.834Z,101971.89
2018-07-12T17:10:34.058Z,101969.33
2018-07-12T17:13:06.948Z,101975.41
2018-07-12T17:15:37.400Z,101977.31
2018-07-12T17:18:11.844Z,101977.81
2018-07-12T17:20:41.935Z,101977.56
2018-07-12T17:23:14.678Z,101982.13
2018-07-12T17:25:46.204Z,101982.80
2018-07-12T17:28:17.667Z,101985.46
2018-07-12T17:30:50.541Z,101983.70
2018-07-12T17:33:24.045Z,101986.55
2018-07-12T17:35:57.369Z,101986.94
2018-07-12T17:38:29.387Z,101989.02
2018-07-12T17:41:02.280Z,101991.27
2018-07-12T17:43:33.713Z,101993.16
2018-07-12T17:46:05.581Z,101997.42
2018-07-12T17:48:37.010Z,101992.90
2018-07-12T17:51:08.416Z,101998.89
2018-07-12T17:53:39.165Z,101996.57
2018-07-12T17:56:11.945Z,101999.27
2018-07-12T17:58:46.148Z,102002.45
2018-07-12T18:01:18.066Z,101996.05
2018-07-12T18:03:49.529Z,102004.52
2018-07-12T18:06:22.604Z,102010.33
2018-07-12T18:08:55.608Z,102011.90
2018-07-12T18:11:28.693Z,102010.45
2018-07-12T18:14:03.091Z,102022.86
2018-07-12T18:16:35.177Z,102023.20
2018-07-12T18:19:09.621Z,102013.67
2018-07-12T18:21:40.189Z,102009.56
2018-07-12T18:24:11.953Z,102013.73
2018-07-12T18:26:46.248Z,102018.02
2018-07-12T18:29:19.056Z,102010.59
2018-07-12T18:31:48.969Z,102019.56
2018-07-12T18:34:21.883Z,102018.59
2018-07-12T18:36:55.008Z,102014.59
2018-07-12T18:39:26.038Z,102014.73
2018-07-12T18:41:59.172Z,102023.11
2018-07-12T18:44:32.359Z,102021.68
2018-07-12T18:47:03.824Z,102027.00
2018-07-12T18:49:38.444Z,102033.77
2018-07-12T18:52:12.197Z,102034.30
2018-07-12T18:54:43.841Z,102032.31
2018-07-12T18:57:17.031Z,102038.66
2018-07-12T18:59:51.613Z,102037.10
2018-07-12T19:02:23.068Z,102037.92
2018-07-12T19:04:56.073Z,102043.11
2018-07-12T19:07:29.451Z,102046.42
2018-07-12T19:09:59.375Z,102050.83
2018-07-12T19:12:31.053Z,102047.29
2018-07-12T19:15:02.801Z,102051.95
2018-07-12T19:17:33.464Z,102049.66
2018-07-12T19:20:05.058Z,102052.31
2018-07-12T19:22:37.904Z,102053.63
2018-07-12T19:25:09.387Z,102057.93
2018-07-12T19:27:39.323Z,102058.01
2018-07-12T19:30:12.200Z,102070.16
2018-07-12T19:32:44.549Z,102068.44
2018-07-12T19:35:16.819Z,102065.88
2018-07-12T19:37:51.757Z,102072.57
2018-07-12T19:40:23.815Z,102067.73
2018-07-12T19:42:55.166Z,102077.94
2018-07-12T19:45:28.111Z,102073.86
2018-07-12T19:48:00.094Z,102080.41
2018-07-12T19:50:33.713Z,102082.53
2018-07-12T19:53:05.031Z,102083.05
2018-07-12T19:55:38.323Z,102095.41
2018-07-12T19:58:10.041Z,102104.94
2018-07-12T20:00:42.977Z,102107.23
2018-07-12T20:03:16.056Z,102106.21
2018-07-12T20:05:47.422Z,102108.44
2018-07-12T20:08:20.475Z,102113.64
2018-07-12T20:10:53.563Z,102113.61
2018-07-12T20:13:27.905Z,102118.91
2018-07-12T20:16:00.856Z,102116.75
2018-07-12T20:18:34.567Z,102119.45
2018-07-12T20:21:04.581Z,102126.56
2018-07-12T20:23:36.961Z,102132.77
2018-07-12T20:26:07.599Z,102133.49
2018-07-12T20:28:42.362Z,102130.41
2018-07-12T20:31:13.942Z,102134.23
2018-07-12T20:33:45.304Z,102131.02
2018-07-12T20:36:18.196Z,102139.08
2018-07-12T20:38:50.350Z,102137.55
2018-07-12T20:41:21.802Z,102138.46
2018-07-12T20:43:53.461Z,102140.58
2018-07-12T20:46:24.936Z,102144.02
2018-07-12T20:48:58.017Z,102139.89
2018-07-12T20:51:29.736Z,102145.85
2018-07-12T20:54:01.212Z,102147.53
2018-07-12T20:56:31.240Z,102150.20
2018-07-12T20:59:01.163Z,102148.70
2018-07-12T21:01:34.205Z,102153.58
2018-07-12T21:04:05.699Z,102155.11
2018-07-12T21:06:35.612Z,102156.53
2018-07-12T21:09:11.651Z,102161.79
2018-07-12T21:11:43.520Z,102160.62
2018-07-12T21:14:18.150Z,102162.61
2018-07-12T21:16:51.072Z,102163.04
2018-07-12T21:19:23.972Z,102157.86
2018-07-12T21:21:55.467Z,102161.84
2018-07-12T21:24:28.668Z,102170.45
2018-07-12T21:27:01.730Z,102172.44
2018-07-12T21:29:36.118Z,102171.23
2018-07-12T21:32:07.592Z,102173.86
2018-07-12T21:34:40.578Z,102175.92
2018-07-12T21:37:13.906Z,102171.69
2018-07-12T21:39:46.873Z,102177.62
2018-07-12T21:42:16.937Z,102178.77
2018-07-12T21:44:50.468Z,102177.34
2018-07-12T21:47:25.056Z,102182.77
2018-07-12T21:49:56.978Z,102183.65
2018-07-12T21:52:29.882Z,102180.72
2018-07-12T21:55:01.308Z,102187.23
2018-07-12T21:57:35.942Z,102186.48
2018-07-12T22:00:08.978Z,102184.28
2018-07-12T22:02:40.915Z,102186.52
2018-07-12T22:05:14.006Z,102184.42
2018-07-12T22:08:30.771Z,102178.64
2018-07-12T22:11:08.301Z,102184.45
2018-07-12T22:14:31.072Z,102180.45
2018-07-12T22:17:05.587Z,102179.16
2018-07-12T22:19:38.756Z,102176.57
2018-07-12T22:22:12.033Z,102184.26
2018-07-12T22:24:44.944Z,102180.79
2018-07-12T22:27:17.005Z,102181.82
2018-07-12T22:29:50.223Z,102180.38
2018-07-12T22:32:24.912Z,102183.80
2018-07-12T22:34:58.101Z,102174.75
2018-07-12T22:37:31.287Z,102182.50
2018-07-12T22:40:04.368Z,102184.30
2018-07-12T22:46:11.835Z,102186.04
2018-07-12T22:48:42.020Z,102179.27
2018-07-12T22:51:16.627Z,102177.37
2018-07-12T22:53:48.082Z,102181.09
2018-07-12T22:56:22.773Z,102175.38
2018-07-12T22:58:54.915Z,102175.83
2018-07-12T23:01:27.257Z,102183.37
2018-07-12T23:04:00.303Z,102176.45
2018-07-12T23:06:33.695Z,102176.16
2018-07-12T23:09:09.092Z,102175.84
2018-07-12T23:11:40.683Z,102183.55
2018-07-12T23:14:12.325Z,102186.10
2018-07-12T23:16:46.779Z,102183.38
2018-07-12T23:19:19.830Z,102186.62
2018-07-12T23:21:53.115Z,102185.22
2018-07-12T23:24:26.271Z,102191.36
2018-07-12T23:26:58.519Z,102185.00
2018-07-12T23:29:30.224Z,102191.38
2018-07-12T23:32:05.702Z,102185.57
2018-07-12T23:34:40.543Z,102182.49
2018-07-12T23:37:12.568Z,102182.17
2018-07-12T23:39:45.680Z,102178.48
2018-07-12T23:42:18.929Z,102173.81
2018-07-12T23:44:53.299Z,102174.35
2018-07-12T23:47:28.164Z,102175.03
2018-07-12T23:49:59.749Z,102170.35
2018-07-12T23:52:31.340Z,102172.98
2018-07-12T23:55:06.473Z,102174.68
2018-07-12T23:57:41.395Z,102176.32
